Time;durP1;ratioP1;P1;durP2;ratioP2;P2;SDS_P1;SDS_P2;PMS_P1;PMS_P2;Temp;Humidity;BMP_temperature;BMP_pressure;BME280_temperature;BME280_humidity;BME280_pressure;Samples;Min_cycle;Max_cycle;Signal;HPM_P1;HPM_P2
2022/12/03 00:00:57;;;;;;;31.23;15.67;;;7.80;59.20;;;;;;4921182;29;20459;-87
2022/12/03 00:03:24;;;;;;;41.23;20.90;;;7.90;58.70;;;;;;4941325;29;21196;-87
2022/12/03 00:05:50;;;;;;;32.93;14.73;;;8.10;58.50;;;;;;4965638;28;20998;-87
2022/12/03 00:08:17;;;;;;;25.27;13.10;;;8.00;58.30;;;;;;4932756;29;20459;-86
2022/12/03 00:10:44;;;;;;;29.27;14.67;;;8.00;58.20;;;;;;4963733;28;20474;-87
2022/12/03 00:13:11;;;;;;;34.37;16.20;;;8.10;58.60;;;;;;4939315;28;20470;-87
2022/12/03 00:15:39;;;;;;;37.00;16.90;;;8.20;58.00;;;;;;4931278;28;20923;-86
2022/12/03 00:18:06;;;;;;;43.73;19.63;;;8.20;57.70;;;;;;4947440;28;20550;-86
2022/12/03 00:20:33;;;;;;;41.70;16.53;;;8.00;57.80;;;;;;4964015;28;20447;-86
2022/12/03 00:23:00;;;;;;;44.20;18.20;;;8.00;57.90;;;;;;4933671;29;20516;-84
2022/12/03 00:25:27;;;;;;;51.37;20.90;;;8.00;58.20;;;;;;4934956;29;20973;-86
2022/12/03 00:27:54;;;;;;;38.03;17.40;;;7.90;58.20;;;;;;4951076;28;20466;-86
2022/12/03 00:30:21;;;;;;;36.60;18.07;;;8.00;58.30;;;;;;4899929;29;20482;-86
2022/12/03 00:32:50;;;;;;;40.47;16.80;;;8.00;58.10;;;;;;4949412;28;20481;-87
2022/12/03 00:35:17;;;;;;;38.50;16.60;;;8.10;58.10;;;;;;4948421;28;20981;-87
2022/12/03 00:37:44;;;;;;;45.80;20.23;;;8.00;58.30;;;;;;4947943;28;20446;-84
2022/12/03 00:40:12;;;;;;;39.47;18.80;;;8.10;58.00;;;;;;4945304;28;20450;-86
2022/12/03 00:42:39;;;;;;;40.90;17.00;;;8.00;57.50;;;;;;4917034;29;20482;-86
2022/12/03 00:45:07;;;;;;;43.57;18.37;;;7.80;57.20;;;;;;4929559;28;20992;-87
2022/12/03 00:47:34;;;;;;;38.87;16.67;;;7.90;58.00;;;;;;4930591;29;20450;-86
2022/12/03 00:50:02;;;;;;;39.80;18.90;;;7.80;57.90;;;;;;4930937;29;20486;-87
2022/12/03 00:52:30;;;;;;;34.00;15.57;;;7.50;58.10;;;;;;4947268;28;20477;-86
2022/12/03 00:54:56;;;;;;;34.53;14.90;;;7.30;58.80;;;;;;4940535;28;20991;-85
2022/12/03 00:57:23;;;;;;;37.93;15.97;;;7.50;58.90;;;;;;4939373;28;20493;-86
2022/12/03 00:59:50;;;;;;;37.57;16.93;;;7.60;59.00;;;;;;4912266;29;20834;-86
2022/12/03 01:02:17;;;;;;;32.53;14.40;;;7.70;58.60;;;;;;4923062;29;20473;-87
2022/12/03 01:04:44;;;;;;;32.63;13.60;;;7.80;58.30;;;;;;4940356;29;20466;-86
2022/12/03 01:07:13;;;;;;;37.97;14.70;;;7.70;58.20;;;;;;4923681;28;21038;-86
2022/12/03 01:09:40;;;;;;;31.93;15.20;;;7.80;58.50;;;;;;4939935;28;20502;-86
2022/12/03 01:12:07;;;;;;;24.40;12.50;;;7.70;57.80;;;;;;4914041;29;20844;-86
2022/12/03 01:14:34;;;;;;;27.40;13.13;;;7.60;57.90;;;;;;4906826;29;20454;-86
2022/12/03 01:17:01;;;;;;;31.20;14.83;;;7.60;58.20;;;;;;4915741;29;20451;-86
2022/12/03 01:19:28;;;;;;;36.20;16.10;;;7.70;58.30;;;;;;4948933;28;20457;-86
2022/12/03 01:21:55;;;;;;;32.63;14.13;;;7.70;58.60;;;;;;4925268;29;20818;-86
2022/12/03 01:24:24;;;;;;;33.53;14.37;;;7.70;58.50;;;;;;4947809;28;20999;-86
2022/12/03 01:26:51;;;;;;;28.07;13.80;;;7.70;58.20;;;;;;4946275;28;20451;-86
2022/12/03 01:29:18;;;;;;;25.30;12.23;;;7.70;57.90;;;;;;4928729;29;20676;-86
2022/12/03 01:34:29;;;;;;;30.67;14.33;;;7.70;58.10;;;;;;4950391;28;20451;-86
2022/12/03 01:36:57;;;;;;;30.73;13.70;;;7.80;58.70;;;;;;4919192;29;20453;-85
2022/12/03 01:39:25;;;;;;;30.23;14.10;;;7.80;58.30;;;;;;4940187;28;20496;-86
2022/12/03 01:41:53;;;;;;;27.27;12.97;;;7.80;57.80;;;;;;4929326;28;20469;-86
2022/12/03 01:44:23;;;;;;;30.53;13.23;;;7.70;58.00;;;;;;4951025;28;20450;-86
2022/12/03 01:46:52;;;;;;;28.70;13.37;;;7.50;58.30;;;;;;4941277;29;20842;-87
2022/12/03 01:49:22;;;;;;;30.80;12.47;;;7.50;58.40;;;;;;4961329;28;21003;-86
2022/12/03 01:51:51;;;;;;;27.63;11.80;;;7.60;58.30;;;;;;4943993;28;20555;-85
2022/12/03 01:54:20;;;;;;;24.90;12.50;;;7.30;58.50;;;;;;4949296;28;20440;-86
2022/12/03 01:56:49;;;;;;;26.63;12.70;;;7.60;58.80;;;;;;4988119;28;20818;-86
2022/12/03 01:59:18;;;;;;;29.80;12.40;;;7.50;58.20;;;;;;4965492;28;20925;-84
2022/12/03 02:01:45;;;;;;;34.23;12.77;;;7.50;58.30;;;;;;4989700;28;20472;-86
2022/12/03 02:04:14;;;;;;;25.50;13.30;;;7.60;58.50;;;;;;4938208;28;20453;-86
2022/12/03 02:06:42;;;;;;;26.50;12.50;;;7.60;58.80;;;;;;5008268;28;20789;-84
2022/12/03 02:09:11;;;;;;;29.60;12.43;;;7.80;58.80;;;;;;4978620;28;20484;-86
2022/12/03 02:11:40;;;;;;;38.30;14.40;;;7.80;58.30;;;;;;5010417;28;20468;-86
2022/12/03 02:14:12;;;;;;;24.27;11.83;;;7.80;57.70;;;;;;4999768;28;20455;-86
2022/12/03 02:16:40;;;;;;;26.60;12.17;;;7.60;57.80;;;;;;4962270;28;20452;-86
2022/12/03 02:19:16;;;;;;;24.87;11.20;;;7.70;58.40;;;;;;4984215;28;20459;-87
2022/12/03 02:21:54;;;;;;;25.47;12.10;;;7.60;57.60;;;;;;4954661;28;20501;-86
2022/12/03 02:24:31;;;;;;;26.90;12.00;;;7.20;58.60;;;;;;4975825;28;21120;-86
2022/12/03 02:26:59;;;;;;;29.40;12.47;;;7.20;58.80;;;;;;4977715;28;20450;-86
2022/12/03 02:29:27;;;;;;;28.03;11.30;;;7.30;59.10;;;;;;4976434;28;20514;-87
2022/12/03 02:31:54;;;;;;;26.63;12.27;;;7.30;58.40;;;;;;5010889;28;20545;-87
2022/12/03 02:34:38;;;;;;;24.87;12.23;;;7.30;58.70;;;;;;4976883;28;20964;-87
2022/12/03 02:37:08;;;;;;;30.17;11.87;;;7.50;59.00;;;;;;4968651;28;20463;-86
2022/12/03 02:39:38;;;;;;;25.73;10.60;;;7.50;57.80;;;;;;4966233;28;20436;-86
2022/12/03 02:44:53;;;;;;;27.77;12.23;;;7.80;58.60;;;;;;4979126;28;20467;-86
2022/12/03 02:47:22;;;;;;;24.57;11.57;;;7.90;58.30;;;;;;4960073;28;20440;-86
2022/12/03 02:49:49;;;;;;;26.17;12.87;;;7.90;57.70;;;;;;4994609;28;20467;-86
2022/12/03 02:52:16;;;;;;;25.93;12.50;;;7.60;57.60;;;;;;4992680;28;20475;-86
2022/12/03 02:54:43;;;;;;;25.60;14.37;;;7.60;58.30;;;;;;4978542;28;20479;-86
2022/12/03 02:57:12;;;;;;;26.47;13.27;;;7.60;58.10;;;;;;4991079;28;20522;-86
2022/12/03 02:59:39;;;;;;;28.90;11.37;;;7.40;58.10;;;;;;4960080;28;20443;-86
2022/12/03 03:02:06;;;;;;;23.07;12.00;;;7.20;58.50;;;;;;4962490;28;20471;-85
2022/12/03 03:04:34;;;;;;;26.50;12.70;;;7.30;59.10;;;;;;4969765;28;20467;-86
2022/12/03 03:07:01;;;;;;;30.20;12.73;;;7.60;58.90;;;;;;4967719;28;20517;-87
2022/12/03 03:09:28;;;;;;;26.87;12.67;;;7.60;58.00;;;;;;4990711;28;20530;-87
2022/12/03 03:11:55;;;;;;;24.47;12.77;;;7.70;58.20;;;;;;4983059;28;20467;-86
2022/12/03 03:14:23;;;;;;;20.10;9.93;;;7.60;58.10;;;;;;4967124;28;20467;-86
2022/12/03 03:16:54;;;;;;;22.63;10.00;;;7.50;57.60;;;;;;4991801;28;20889;-86
2022/12/03 03:19:23;;;;;;;28.30;12.43;;;7.30;58.10;;;;;;4962152;28;20455;-86
2022/12/03 03:21:50;;;;;;;25.00;12.80;;;7.00;58.80;;;;;;4993787;28;21065;-85
2022/12/03 03:24:17;;;;;;;25.93;12.70;;;6.90;59.00;;;;;;4967311;28;20819;-86
2022/12/03 03:26:44;;;;;;;22.73;12.67;;;7.00;59.50;;;;;;5001216;28;20453;-86
2022/12/03 03:29:11;;;;;;;24.63;11.50;;;7.10;59.60;;;;;;4965044;28;20457;-86
2022/12/03 03:31:42;;;;;;;22.53;12.50;;;7.00;59.20;;;;;;4954628;28;20480;-86
2022/12/03 03:34:09;;;;;;;22.70;12.17;;;7.20;59.20;;;;;;4983545;28;20595;-85
2022/12/03 03:36:37;;;;;;;29.13;12.90;;;7.40;58.80;;;;;;4968114;28;20452;-86
2022/12/03 03:39:05;;;;;;;21.17;11.67;;;7.70;58.60;;;;;;4967631;28;20464;-86
2022/12/03 03:41:33;;;;;;;29.40;12.40;;;7.70;58.30;;;;;;4983352;28;20478;-86
2022/12/03 03:44:00;;;;;;;25.63;11.63;;;7.50;58.50;;;;;;4966461;28;20458;-86
2022/12/03 03:46:28;;;;;;;26.40;11.97;;;7.60;57.90;;;;;;4990355;28;20467;-87
2022/12/03 03:48:57;;;;;;;26.00;12.97;;;7.60;58.40;;;;;;4961899;28;20443;-86
2022/12/03 03:51:24;;;;;;;23.83;12.40;;;7.60;59.00;;;;;;4965587;28;20619;-87
2022/12/03 03:53:52;;;;;;;28.40;13.47;;;7.70;59.00;;;;;;5010682;28;20452;-86
2022/12/03 03:56:22;;;;;;;24.43;12.60;;;7.80;58.60;;;;;;4995891;28;20803;-87
2022/12/03 03:58:49;;;;;;;23.83;12.73;;;7.70;57.80;;;;;;4966105;28;20446;-86
2022/12/03 04:01:17;;;;;;;20.90;11.33;;;7.80;58.40;;;;;;4964857;28;20523;-86
2022/12/03 04:03:45;;;;;;;27.77;13.03;;;7.90;58.50;;;;;;4992477;28;20968;-86
2022/12/03 04:06:13;;;;;;;21.23;11.43;;;8.00;58.50;;;;;;4988052;28;20452;-84
2022/12/03 04:08:41;;;;;;;22.50;11.10;;;8.00;58.00;;;;;;4956147;28;20465;-86
2022/12/03 04:13:52;;;;;;;31.73;12.27;;;8.10;57.90;;;;;;4987369;28;20448;-85
2022/12/03 04:16:19;;;;;;;25.80;12.00;;;8.00;57.70;;;;;;4987453;28;20464;-86
2022/12/03 04:18:47;;;;;;;25.33;12.60;;;8.00;57.50;;;;;;4967252;28;20471;-86
2022/12/03 04:24:03;;;;;;;24.40;11.70;;;7.60;58.00;;;;;;4959986;28;20796;-86
2022/12/03 04:29:18;;;;;;;24.83;11.20;;;7.90;58.30;;;;;;4971327;28;21096;-86
2022/12/03 04:37:15;;;;;;;19.23;10.97;;;8.00;58.10;;;;;;4962482;28;20632;-86
2022/12/03 04:39:42;;;;;;;24.90;12.10;;;8.00;57.60;;;;;;4980410;28;20448;-84
2022/12/03 04:42:09;;;;;;;24.57;12.20;;;7.80;57.80;;;;;;4973745;28;20472;-86
2022/12/03 04:44:37;;;;;;;26.00;10.93;;;7.40;57.90;;;;;;4989338;28;20487;-86
2022/12/03 04:47:07;;;;;;;27.00;12.20;;;7.50;58.70;;;;;;4976346;28;20682;-86
2022/12/03 04:49:35;;;;;;;30.90;13.47;;;7.40;58.60;;;;;;4970413;28;20463;-86
2022/12/03 04:52:03;;;;;;;29.20;12.23;;;7.60;59.00;;;;;;4966381;28;20496;-86
2022/12/03 04:54:31;;;;;;;28.07;12.40;;;7.70;58.60;;;;;;4990517;28;20547;-86
2022/12/03 04:56:58;;;;;;;27.20;12.70;;;7.70;58.30;;;;;;4970962;28;20440;-86
2022/12/03 04:59:25;;;;;;;27.70;14.50;;;7.90;58.20;;;;;;4986457;28;20539;-86
2022/12/03 05:01:52;;;;;;;23.03;11.50;;;8.00;58.10;;;;;;4980625;28;20709;-86
2022/12/03 05:04:19;;;;;;;24.40;13.07;;;7.80;57.40;;;;;;4988261;28;20454;-86
2022/12/03 05:06:46;;;;;;;26.67;13.97;;;7.80;57.90;;;;;;4966294;28;20469;-86
2022/12/03 05:09:28;;;;;;;22.47;11.23;;;7.70;57.90;;;;;;4926578;28;20443;-86
2022/12/03 05:11:57;;;;;;;23.53;12.40;;;7.80;58.00;;;;;;4962537;28;20483;-83
2022/12/03 05:14:24;;;;;;;26.80;12.87;;;8.00;58.10;;;;;;4987642;28;20927;-85
2022/12/03 05:16:51;;;;;;;23.37;10.27;;;8.00;57.80;;;;;;4964829;28;20973;-85
2022/12/03 05:19:18;;;;;;;25.57;13.07;;;7.80;57.50;;;;;;4960804;28;20473;-85
2022/12/03 05:21:43;;;;;;;27.33;12.43;;;7.80;58.10;;;;;;4970861;28;20471;-85
2022/12/03 05:24:10;;;;;;;24.30;12.50;;;7.90;57.80;;;;;;4958805;28;20445;-86
2022/12/03 05:26:37;;;;;;;29.77;12.67;;;8.00;57.90;;;;;;4989153;28;20556;-86
2022/12/03 05:29:06;;;;;;;28.17;12.80;;;8.00;57.90;;;;;;4948768;28;21236;-85
2022/12/03 05:31:33;;;;;;;30.57;13.80;;;7.80;58.10;;;;;;4973273;28;20479;-85
2022/12/03 05:34:00;;;;;;;27.60;12.37;;;7.80;58.60;;;;;;4956239;28;20456;-85
2022/12/03 05:36:27;;;;;;;24.50;13.57;;;7.90;58.00;;;;;;4993609;28;20444;-85
2022/12/03 05:38:53;;;;;;;29.63;13.80;;;8.00;57.90;;;;;;4951897;28;20454;-86
2022/12/03 05:44:06;;;;;;;40.27;16.70;;;7.90;57.50;;;;;;4948111;28;20458;-86
2022/12/03 05:46:33;;;;;;;29.67;15.43;;;7.90;57.80;;;;;;4960517;28;20447;-85
2022/12/03 05:49:00;;;;;;;28.30;13.53;;;7.70;57.30;;;;;;4988790;28;21111;-85
2022/12/03 05:51:27;;;;;;;34.83;15.27;;;7.70;57.90;;;;;;5006075;28;20484;-85
2022/12/03 05:53:54;;;;;;;28.00;13.13;;;7.60;57.80;;;;;;4987008;28;20800;-84
2022/12/03 05:56:21;;;;;;;26.70;13.60;;;7.50;58.00;;;;;;4974540;28;20983;-86
2022/12/03 05:58:48;;;;;;;24.40;13.50;;;7.70;58.10;;;;;;4955935;28;20896;-85
2022/12/03 06:01:16;;;;;;;27.97;13.90;;;7.70;57.80;;;;;;4989524;28;20932;-84
2022/12/03 06:03:43;;;;;;;25.10;13.57;;;7.80;57.90;;;;;;4961123;28;20829;-85
2022/12/03 06:06:10;;;;;;;27.53;12.57;;;7.90;58.10;;;;;;4970542;28;20482;-85
2022/12/03 06:08:37;;;;;;;24.10;12.03;;;7.80;57.70;;;;;;4949891;28;20479;-85
2022/12/03 06:11:04;;;;;;;30.93;14.20;;;7.90;57.80;;;;;;4957798;28;20460;-84
2022/12/03 06:13:31;;;;;;;26.30;11.90;;;7.90;57.80;;;;;;4988408;28;20899;-86
2022/12/03 06:15:58;;;;;;;23.00;12.43;;;7.80;57.90;;;;;;4958044;28;20455;-85
2022/12/03 06:18:27;;;;;;;21.27;10.63;;;7.70;58.10;;;;;;4985715;28;20622;-85
2022/12/03 06:20:54;;;;;;;22.10;12.43;;;7.80;58.30;;;;;;4997070;28;20457;-85
2022/12/03 06:23:21;;;;;;;25.67;13.40;;;7.90;58.10;;;;;;4987554;28;20480;-84
2022/12/03 06:25:47;;;;;;;29.00;12.17;;;8.00;58.10;;;;;;4989751;28;20459;-86
2022/12/03 06:28:14;;;;;;;25.10;12.63;;;7.90;57.80;;;;;;4953822;28;20482;-85
2022/12/03 06:30:42;;;;;;;23.20;12.23;;;7.90;57.80;;;;;;4971438;28;20584;-86
2022/12/03 06:33:09;;;;;;;22.87;9.60;;;7.80;57.40;;;;;;4940544;28;20483;-85
2022/12/03 06:35:37;;;;;;;20.20;10.93;;;7.90;57.60;;;;;;4975321;28;22153;-85
2022/12/03 06:38:04;;;;;;;23.03;11.90;;;8.00;57.80;;;;;;5004761;28;20487;-85
2022/12/03 06:40:31;;;;;;;20.97;10.53;;;8.10;57.70;;;;;;4955796;28;20452;-85
2022/12/03 06:42:58;;;;;;;25.90;12.27;;;8.20;57.40;;;;;;4948785;28;20534;-86
2022/12/03 06:45:25;;;;;;;26.13;12.57;;;8.30;57.40;;;;;;4955066;28;20956;-85
2022/12/03 06:47:52;;;;;;;24.70;12.07;;;8.30;57.10;;;;;;4985941;28;20961;-85
2022/12/03 06:50:19;;;;;;;25.07;11.77;;;8.20;56.90;;;;;;4955127;28;20547;-85
2022/12/03 06:52:48;;;;;;;25.93;12.30;;;8.10;57.00;;;;;;4989492;28;20475;-86
2022/12/03 06:55:15;;;;;;;26.40;13.90;;;7.90;57.60;;;;;;4992343;28;20870;-85
2022/12/03 06:57:42;;;;;;;32.73;15.37;;;7.90;58.00;;;;;;4984630;28;20462;-86
2022/12/03 07:00:10;;;;;;;32.20;16.03;;;7.90;57.70;;;;;;4969904;28;21048;-86
2022/12/03 07:02:37;;;;;;;35.97;18.07;;;8.00;57.50;;;;;;4990428;28;22144;-85
2022/12/03 07:05:05;;;;;;;24.77;11.90;;;8.00;57.70;;;;;;4961982;28;20455;-83
2022/12/03 07:07:32;;;;;;;24.70;12.27;;;7.90;57.40;;;;;;4962070;28;20487;-86
2022/12/03 07:10:00;;;;;;;22.00;12.83;;;7.90;57.60;;;;;;4979521;28;20455;-85
2022/12/03 07:12:28;;;;;;;26.60;12.40;;;7.80;57.70;;;;;;4964508;28;20476;-85
2022/12/03 07:14:55;;;;;;;25.30;11.53;;;7.50;57.60;;;;;;4961288;28;20825;-85
2022/12/03 07:17:22;;;;;;;19.90;10.87;;;7.30;58.20;;;;;;4974464;28;20444;-85
2022/12/03 07:19:48;;;;;;;24.27;12.50;;;7.50;58.30;;;;;;4983370;28;20460;-85
2022/12/03 07:22:15;;;;;;;22.40;12.33;;;7.70;58.20;;;;;;4974838;28;20472;-86
2022/12/03 07:24:42;;;;;;;23.57;11.80;;;7.70;58.00;;;;;;4959000;28;20447;-85
2022/12/03 07:27:11;;;;;;;28.97;12.50;;;7.80;57.70;;;;;;4967914;28;20570;-85
2022/12/03 07:29:38;;;;;;;21.43;10.43;;;7.80;57.40;;;;;;4982334;28;20571;-86
2022/12/03 07:32:05;;;;;;;23.30;11.30;;;7.60;58.00;;;;;;4989681;28;20476;-84
2022/12/03 07:34:32;;;;;;;22.00;11.10;;;7.70;58.40;;;;;;4950617;28;20820;-85
2022/12/03 07:36:59;;;;;;;23.30;11.80;;;7.90;58.20;;;;;;4999811;28;20547;-85
2022/12/03 07:39:26;;;;;;;30.60;14.37;;;8.00;58.20;;;;;;4985503;28;20461;-86
2022/12/03 07:41:53;;;;;;;30.70;14.00;;;8.10;57.90;;;;;;4984721;28;20818;-85
2022/12/03 07:44:21;;;;;;;28.83;12.13;;;8.10;57.20;;;;;;4989112;28;20684;-84
2022/12/03 07:46:48;;;;;;;26.93;14.00;;;8.00;57.30;;;;;;4983875;28;20978;-86
2022/12/03 07:49:15;;;;;;;29.27;13.93;;;8.00;57.70;;;;;;4987583;28;20461;-85
2022/12/03 07:51:45;;;;;;;28.27;14.00;;;8.10;57.60;;;;;;4958823;28;20487;-84
2022/12/03 07:54:11;;;;;;;28.43;13.77;;;8.20;57.90;;;;;;4992969;28;20514;-85
2022/12/03 07:56:38;;;;;;;26.77;13.60;;;8.10;57.40;;;;;;4964833;28;20452;-85
2022/12/03 07:59:05;;;;;;;30.50;13.57;;;8.10;57.60;;;;;;4965641;28;20474;-84
2022/12/03 08:01:34;;;;;;;25.60;13.43;;;8.10;57.50;;;;;;4976287;28;20483;-86
2022/12/03 08:04:01;;;;;;;25.60;11.93;;;8.00;57.20;;;;;;4967226;28;20690;-84
2022/12/03 08:06:28;;;;;;;28.13;12.60;;;7.90;57.50;;;;;;4989701;28;20459;-85
2022/12/03 08:08:55;;;;;;;23.00;12.40;;;7.80;57.70;;;;;;4989953;28;20452;-86
2022/12/03 08:11:22;;;;;;;24.70;11.97;;;7.90;57.80;;;;;;4976501;28;20538;-86
2022/12/03 08:13:49;;;;;;;26.63;13.73;;;8.10;58.00;;;;;;4962103;28;20452;-85
2022/12/03 08:16:18;;;;;;;26.70;12.53;;;8.20;58.10;;;;;;4956953;28;20456;-85
2022/12/03 08:18:48;;;;;;;25.20;12.97;;;8.30;57.90;;;;;;4964481;28;20456;-85
2022/12/03 08:21:16;;;;;;;29.07;14.53;;;8.30;57.60;;;;;;4961791;28;20451;-85
2022/12/03 08:23:44;;;;;;;28.90;14.70;;;8.30;57.70;;;;;;4961029;28;20975;-85
2022/12/03 08:26:23;;;;;;;29.00;12.20;;;8.30;57.50;;;;;;4974532;28;20452;-85
2022/12/03 08:28:50;;;;;;;29.43;15.07;;;8.20;57.50;;;;;;4992272;28;20606;-86
2022/12/03 08:31:20;;;;;;;31.83;13.73;;;8.00;57.50;;;;;;4966705;28;20479;-85
2022/12/03 08:33:50;;;;;;;52.10;23.07;;;8.10;57.80;;;;;;4957399;28;20451;-85
2022/12/03 08:36:21;;;;;;;29.90;17.70;;;8.10;57.90;;;;;;4966259;28;20451;-85
2022/12/03 08:38:51;;;;;;;25.67;14.63;;;8.30;57.80;;;;;;4993265;28;20866;-86
2022/12/03 08:42:40;;;;;;;33.83;14.20;;;8.20;57.30;;;;;;4974851;28;20571;-85
2022/12/03 08:44:23;;;;;;;29.40;14.53;;;8.20;57.70;;;;;;4965289;28;20475;-84
2022/12/03 08:46:54;;;;;;;30.93;15.27;;;8.20;57.50;;;;;;4995436;28;20554;-86
2022/12/03 08:49:23;;;;;;;35.60;16.20;;;7.90;57.00;;;;;;4969739;28;20445;-83
2022/12/03 08:51:56;;;;;;;32.80;16.77;;;7.70;57.90;;;;;;4976546;28;20533;-85
2022/12/03 08:54:24;;;;;;;34.23;14.63;;;7.70;58.40;;;;;;4972130;28;20454;-84
2022/12/03 08:56:51;;;;;;;38.27;16.67;;;7.80;58.80;;;;;;4976819;28;20457;-85
2022/12/03 08:59:26;;;;;;;28.77;14.50;;;7.60;58.70;;;;;;4991525;28;21308;-85
2022/12/03 09:01:54;;;;;;;39.13;17.60;;;7.80;58.80;;;;;;4967242;28;20527;-86
2022/12/03 09:04:26;;;;;;;31.43;17.93;;;7.70;58.70;;;;;;4967522;28;20457;-85
2022/12/03 09:06:54;;;;;;;32.53;15.80;;;7.90;58.90;;;;;;4987674;28;20445;-85
2022/12/03 09:09:21;;;;;;;35.07;18.90;;;7.60;58.40;;;;;;4961448;28;20512;-86
2022/12/03 09:11:48;;;;;;;37.33;17.70;;;7.70;58.70;;;;;;4982903;28;20488;-85
2022/12/03 09:14:16;;;;;;;39.93;17.40;;;7.60;58.50;;;;;;4956016;28;20457;-86
2022/12/03 09:16:43;;;;;;;35.87;17.60;;;7.50;58.70;;;;;;4973944;28;21069;-86
2022/12/03 09:19:10;;;;;;;31.47;15.70;;;7.20;59.00;;;;;;4955366;28;20549;-85
2022/12/03 09:21:38;;;;;;;34.47;17.90;;;7.40;59.60;;;;;;4991994;28;20548;-85
2022/12/03 09:24:05;;;;;;;38.73;16.33;;;7.70;59.30;;;;;;4956780;28;20479;-85
2022/12/03 09:26:32;;;;;;;31.13;15.67;;;7.60;58.70;;;;;;4988391;28;20452;-83
2022/12/03 09:28:59;;;;;;;35.03;18.20;;;7.70;58.70;;;;;;4978842;28;20448;-85
2022/12/03 09:31:26;;;;;;;31.57;15.53;;;7.70;58.70;;;;;;4972273;28;20476;-84
2022/12/03 09:33:53;;;;;;;33.60;17.67;;;7.80;58.60;;;;;;4965374;28;20799;-84
2022/12/03 09:36:20;;;;;;;30.00;17.13;;;7.50;58.60;;;;;;4982315;28;20443;-86
2022/12/03 09:38:49;;;;;;;28.80;14.80;;;7.50;59.10;;;;;;4974757;28;20466;-86
2022/12/03 09:41:16;;;;;;;33.30;15.50;;;7.50;58.70;;;;;;4990611;28;20543;-85
2022/12/03 09:43:43;;;;;;;35.73;16.67;;;7.70;58.70;;;;;;4957831;28;20461;-86
2022/12/03 09:46:10;;;;;;;30.07;17.40;;;7.80;58.70;;;;;;4974233;28;20455;-86
2022/12/03 09:48:37;;;;;;;32.20;16.77;;;7.90;58.50;;;;;;4986220;28;20469;-86
2022/12/03 09:51:05;;;;;;;33.33;17.50;;;8.10;58.60;;;;;;4974296;28;20470;-86
2022/12/03 09:53:32;;;;;;;35.27;17.03;;;7.90;57.90;;;;;;4963942;28;20859;-86
2022/12/03 09:56:01;;;;;;;31.33;14.57;;;8.00;58.20;;;;;;4990165;28;20462;-86
2022/12/03 09:58:29;;;;;;;28.23;13.97;;;8.10;58.30;;;;;;4955205;28;21968;-86
2022/12/03 10:00:57;;;;;;;34.23;15.30;;;8.00;58.00;;;;;;4966693;28;20969;-86
2022/12/03 10:03:28;;;;;;;28.30;15.17;;;8.20;58.10;;;;;;4955989;28;20559;-86
2022/12/03 10:05:56;;;;;;;37.60;16.83;;;8.20;58.00;;;;;;5006927;28;20483;-87
2022/12/03 10:08:25;;;;;;;32.83;14.10;;;8.00;57.90;;;;;;4947984;28;20983;-86
2022/12/03 10:10:55;;;;;;;25.93;14.43;;;8.00;58.70;;;;;;4991482;28;20448;-86
2022/12/03 10:13:26;;;;;;;34.93;15.77;;;7.90;58.30;;;;;;4956498;28;20881;-86
2022/12/03 10:15:55;;;;;;;31.63;14.40;;;7.80;58.00;;;;;;4971321;28;20444;-86
2022/12/03 10:18:25;;;;;;;27.53;14.90;;;7.80;58.10;;;;;;4938736;28;20991;-85
2022/12/03 10:20:53;;;;;;;29.50;13.47;;;7.80;59.10;;;;;;4978393;28;20457;-87
2022/12/03 10:23:22;;;;;;;36.70;16.17;;;7.90;58.60;;;;;;4987318;28;20464;-87
2022/12/03 10:25:55;;;;;;;36.30;16.90;;;7.90;58.70;;;;;;4950953;28;20455;-86
2022/12/03 10:28:33;;;;;;;33.77;14.60;;;7.90;58.50;;;;;;4954736;28;20459;-84
2022/12/03 10:31:01;;;;;;;33.80;15.00;;;8.00;58.90;;;;;;4967111;28;20507;-84
2022/12/03 10:33:34;;;;;;;39.13;16.33;;;8.10;58.60;;;;;;4959346;28;21093;-85
2022/12/03 10:36:21;;;;;;;33.83;15.37;;;8.10;58.30;;;;;;4997557;28;20961;-86
2022/12/03 10:39:10;;;;;;;32.03;17.53;;;8.10;58.40;;;;;;4959316;28;20458;-85
2022/12/03 10:41:38;;;;;;;30.80;15.77;;;7.80;59.20;;;;;;4979128;28;20533;-87
2022/12/03 10:44:24;;;;;;;30.63;15.30;;;7.90;59.00;;;;;;4957315;28;20592;-86
2022/12/03 10:47:05;;;;;;;34.20;17.63;;;7.70;59.00;;;;;;4963590;28;21036;-86
2022/12/03 10:49:32;;;;;;;30.87;17.43;;;7.90;59.20;;;;;;4989133;28;20455;-86
2022/12/03 10:51:59;;;;;;;28.83;15.10;;;8.00;58.90;;;;;;4975258;28;20972;-86
2022/12/03 10:54:29;;;;;;;30.57;15.37;;;8.10;58.60;;;;;;4968599;28;20463;-86
2022/12/03 10:56:57;;;;;;;32.30;15.00;;;7.90;58.00;;;;;;4963522;28;20482;-86
2022/12/03 10:59:28;;;;;;;30.77;16.17;;;7.90;58.60;;;;;;4975864;28;20464;-86
2022/12/03 11:01:55;;;;;;;31.93;17.10;;;8.00;58.80;;;;;;4962897;28;21008;-87
2022/12/03 11:04:23;;;;;;;36.13;17.07;;;8.20;58.70;;;;;;4990826;28;20451;-86
2022/12/03 11:06:51;;;;;;;31.80;15.80;;;8.30;58.10;;;;;;4967618;28;20440;-84
2022/12/03 11:09:31;;;;;;;43.77;18.97;;;8.10;58.00;;;;;;4965682;28;20456;-85
2022/12/03 11:12:04;;;;;;;31.87;16.97;;;8.00;58.40;;;;;;4976840;28;20476;-86
2022/12/03 11:15:08;;;;;;;28.13;15.30;;;8.00;58.20;;;;;;4973144;28;20460;-86
2022/12/03 11:17:41;;;;;;;37.17;17.77;;;8.00;58.70;;;;;;4967697;28;20443;-84
2022/12/03 11:20:13;;;;;;;34.50;17.57;;;8.00;58.20;;;;;;4967893;28;20969;-86
2022/12/03 11:22:44;;;;;;;32.87;17.70;;;7.90;58.20;;;;;;4993033;28;20898;-86
2022/12/03 11:25:35;;;;;;;36.73;17.57;;;7.70;58.70;;;;;;4989766;28;20686;-86
2022/12/03 11:28:31;;;;;;;36.83;16.77;;;7.70;59.20;;;;;;4994275;28;20456;-86
2022/12/03 11:31:01;;;;;;;32.60;15.87;;;7.90;58.90;;;;;;4994907;28;20443;-86
2022/12/03 11:33:30;;;;;;;31.80;17.27;;;8.00;58.80;;;;;;4949199;28;20482;-84
2022/12/03 11:36:14;;;;;;;33.20;16.43;;;7.90;58.40;;;;;;4952032;28;20539;-86
2022/12/03 11:38:53;;;;;;;33.27;17.40;;;7.90;58.50;;;;;;4973979;28;21005;-86
2022/12/03 11:41:23;;;;;;;31.60;14.87;;;7.80;58.80;;;;;;4999664;28;20464;-86
2022/12/03 11:44:02;;;;;;;34.80;17.50;;;7.90;59.10;;;;;;4958331;28;20439;-86
2022/12/03 11:46:41;;;;;;;34.27;15.93;;;7.90;59.10;;;;;;4965746;28;20444;-85
2022/12/03 11:49:29;;;;;;;36.93;16.40;;;7.80;58.70;;;;;;4978653;28;21041;-86
2022/12/03 11:51:57;;;;;;;32.47;17.40;;;7.90;58.80;;;;;;4993849;28;20467;-85
2022/12/03 11:54:24;;;;;;;36.33;18.13;;;8.00;59.20;;;;;;4967734;28;20448;-86
2022/12/03 11:56:52;;;;;;;33.20;16.23;;;8.00;59.20;;;;;;4975016;28;20487;-86
2022/12/03 11:59:20;;;;;;;36.00;16.90;;;8.20;59.20;;;;;;4988248;28;20716;-86
2022/12/03 12:01:48;;;;;;;41.10;17.90;;;8.20;58.30;;;;;;4990020;28;20484;-86
2022/12/03 12:04:30;;;;;;;38.60;17.80;;;8.20;58.60;;;;;;4997183;28;20891;-85
2022/12/03 12:06:58;;;;;;;34.30;18.10;;;8.20;58.30;;;;;;4992712;28;20460;-86
2022/12/03 12:09:50;;;;;;;47.97;20.93;;;8.00;59.00;;;;;;4990915;28;20453;-86
2022/12/03 12:12:27;;;;;;;35.80;17.50;;;8.00;59.30;;;;;;4975422;28;20476;-85
2022/12/03 12:14:54;;;;;;;35.87;15.90;;;8.00;58.80;;;;;;4966895;28;20444;-86
2022/12/03 12:17:44;;;;;;;35.13;15.97;;;7.90;59.10;;;;;;4982792;28;20773;-85
2022/12/03 12:20:24;;;;;;;39.40;19.20;;;7.90;59.20;;;;;;4978120;28;20452;-86
2022/12/03 12:22:52;;;;;;;37.23;17.90;;;8.00;59.20;;;;;;4958708;28;20467;-86
2022/12/03 12:25:40;;;;;;;108.10;46.53;;;8.10;58.90;;;;;;4991446;28;20833;-85
2022/12/03 12:28:07;;;;;;;52.97;25.30;;;7.90;59.40;;;;;;4957865;28;20472;-86
2022/12/03 12:30:35;;;;;;;40.20;18.80;;;7.90;59.20;;;;;;5006423;28;20834;-86
2022/12/03 12:33:19;;;;;;;39.47;18.67;;;7.90;58.90;;;;;;4989999;28;20460;-86
2022/12/03 12:35:46;;;;;;;32.83;17.80;;;8.00;58.80;;;;;;4979538;28;20457;-86
2022/12/03 12:38:16;;;;;;;36.90;16.90;;;8.30;58.90;;;;;;4973519;28;20454;-87
2022/12/03 12:40:45;;;;;;;33.23;17.00;;;8.50;58.50;;;;;;4967676;28;20598;-87
2022/12/03 12:43:25;;;;;;;39.47;17.97;;;8.60;58.10;;;;;;4989888;28;20476;-86
2022/12/03 12:45:53;;;;;;;38.47;16.60;;;8.60;57.70;;;;;;4947962;28;20828;-86
2022/12/03 12:48:27;;;;;;;34.13;19.70;;;8.50;57.60;;;;;;4967879;28;20535;-85
2022/12/03 12:51:00;;;;;;;37.00;18.43;;;8.10;57.80;;;;;;4967776;28;20451;-86
2022/12/03 12:53:30;;;;;;;45.80;26.10;;;8.10;58.70;;;;;;4971996;28;20716;-86
2022/12/03 12:55:59;;;;;;;38.50;17.70;;;8.10;58.60;;;;;;4968089;28;21289;-85
2022/12/03 12:58:30;;;;;;;31.90;16.47;;;8.20;58.60;;;;;;4948191;28;20467;-86
2022/12/03 13:01:00;;;;;;;32.33;17.07;;;8.30;58.10;;;;;;4962992;28;20461;-86
2022/12/03 13:03:33;;;;;;;45.60;20.60;;;8.20;58.40;;;;;;4960232;28;20472;-85
2022/12/03 13:06:01;;;;;;;35.33;17.27;;;8.40;58.40;;;;;;4962827;28;20895;-85
2022/12/03 13:08:31;;;;;;;38.63;20.20;;;8.40;57.90;;;;;;4972506;28;20483;-86